Time;durP1;ratioP1;P1;durP2;ratioP2;P2;SDS_P1;SDS_P2;PMS_P1;PMS_P2;Temp;Humidity;BMP_temperature;BMP_pressure;BME280_temperature;BME280_humidity;BME280_pressure;Samples;Min_cycle;Max_cycle;Signal;HPM_P1;HPM_P2
2022/09/03 00:00:26;;;;;;;4.90;0.57;;;17.20;99.90;;;;;;4979479;28;20460;-80
2022/09/03 00:03:19;;;;;;;4.32;0.60;;;17.10;99.90;;;;;;5012701;28;20700;-79
2022/09/03 00:05:47;;;;;;;1.45;1.05;;;17.10;99.90;;;;;;4979902;28;20042;-81
2022/09/03 00:08:26;;;;;;;2.05;0.68;;;17.00;99.90;;;;;;5015659;28;20042;-79
2022/09/03 00:11:16;;;;;;;3.60;0.70;;;17.00;99.90;;;;;;4984543;28;20241;-79
2022/09/03 00:14:04;;;;;;;11.00;1.17;;;16.90;99.90;;;;;;4989232;28;20034;-80
2022/09/03 00:16:44;;;;;;;4.45;1.48;;;16.90;99.90;;;;;;4986745;28;20051;-80
2022/09/03 00:19:14;;;;;;;2.25;1.08;;;16.80;99.90;;;;;;4988377;28;20050;-80
2022/09/03 00:21:46;;;;;;;2.47;1.08;;;16.80;99.90;;;;;;4985174;28;20050;-79
2022/09/03 00:24:15;;;;;;;3.13;1.67;;;16.70;99.90;;;;;;4987215;28;20096;-80
2022/09/03 00:26:45;;;;;;;2.88;0.50;;;16.60;99.90;;;;;;4985137;28;21135;-79
2022/09/03 00:29:16;;;;;;;1.25;0.60;;;16.60;99.90;;;;;;4988525;28;20160;-80
2022/09/03 00:31:55;;;;;;;1.25;0.80;;;16.50;99.90;;;;;;4985672;28;20050;-80
2022/09/03 00:34:29;;;;;;;5.80;0.82;;;16.60;99.90;;;;;;5018586;28;20516;-80
2022/09/03 00:36:56;;;;;;;2.47;0.57;;;16.50;99.90;;;;;;4986255;28;20056;-78
2022/09/03 00:39:24;;;;;;;2.25;0.57;;;16.50;99.90;;;;;;4987257;28;20058;-79
2022/09/03 00:42:08;;;;;;;3.00;0.60;;;16.40;99.90;;;;;;4986438;28;20041;-79
2022/09/03 00:44:59;;;;;;;3.38;0.80;;;16.30;99.90;;;;;;4986796;28;20452;-79
2022/09/03 00:48:02;;;;;;;6.00;0.45;;;16.30;99.90;;;;;;4985625;28;20046;-80
2022/09/03 00:50:40;;;;;;;0.75;0.60;;;16.30;99.90;;;;;;4988054;28;20521;-80
2022/09/03 00:53:41;;;;;;;4.57;0.60;;;16.30;99.90;;;;;;4987103;28;20049;-80
2022/09/03 00:56:34;;;;;;;1.48;0.50;;;16.30;99.90;;;;;;4980960;28;20042;-81
2022/09/03 00:59:00;;;;;;;1.65;0.52;;;16.20;99.90;;;;;;4986263;28;20081;-80
2022/09/03 01:01:34;;;;;;;5.18;1.10;;;16.20;99.90;;;;;;4985841;28;20089;-80
2022/09/03 01:04:57;;;;;;;3.10;2.00;;;16.20;99.90;;;;;;4993257;28;20077;-79
2022/09/03 01:07:48;;;;;;;2.05;0.82;;;16.20;99.90;;;;;;4975009;28;20042;-81
2022/09/03 01:10:19;;;;;;;3.00;0.50;;;16.10;99.90;;;;;;4986134;28;20046;-80
2022/09/03 01:13:04;;;;;;;2.05;1.02;;;16.10;99.90;;;;;;4986728;28;20150;-80
2022/09/03 01:15:55;;;;;;;6.15;0.88;;;16.00;99.90;;;;;;4984878;28;20042;-80
2022/09/03 01:18:52;;;;;;;4.70;0.68;;;16.10;99.90;;;;;;4980291;28;20038;-79
2022/09/03 01:21:54;;;;;;;15.10;1.27;;;16.00;99.90;;;;;;4981291;28;20042;-80
2022/09/03 01:24:42;;;;;;;1.05;0.50;;;16.00;99.90;;;;;;4987013;28;20056;-80
2022/09/03 01:27:20;;;;;;;1.90;0.55;;;16.00;99.90;;;;;;4981812;28;20108;-80
2022/09/03 01:30:03;;;;;;;1.33;0.60;;;16.00;99.90;;;;;;4986372;28;20046;-80
2022/09/03 01:32:34;;;;;;;3.40;0.68;;;15.90;99.90;;;;;;4983170;28;20057;-81
2022/09/03 01:35:13;;;;;;;2.00;0.47;;;15.90;99.90;;;;;;4986430;28;20426;-79
2022/09/03 01:37:54;;;;;;;7.32;0.57;;;15.90;99.90;;;;;;4987867;28;20057;-80
2022/09/03 01:40:29;;;;;;;5.40;0.75;;;15.90;99.90;;;;;;4987580;28;20046;-79
2022/09/03 01:43:24;;;;;;;3.47;0.70;;;15.80;99.90;;;;;;4983298;28;20281;-80
2022/09/03 01:45:53;;;;;;;1.42;0.60;;;15.90;99.90;;;;;;4976927;28;20555;-79
2022/09/03 01:48:39;;;;;;;1.98;0.30;;;15.80;99.90;;;;;;4985724;28;20141;-79
2022/09/03 01:51:04;;;;;;;1.45;0.60;;;15.80;99.90;;;;;;4986089;28;20061;-78
2022/09/03 01:53:54;;;;;;;8.82;0.77;;;15.80;99.90;;;;;;4985718;28;20425;-80
2022/09/03 01:56:41;;;;;;;5.47;0.85;;;15.80;99.90;;;;;;4983415;28;20077;-82
2022/09/03 01:59:10;;;;;;;8.88;1.33;;;15.80;99.90;;;;;;4968219;28;20086;-80
2022/09/03 02:01:44;;;;;;;4.93;0.65;;;15.90;99.90;;;;;;4984066;28;20053;-79
2022/09/03 02:04:22;;;;;;;2.38;0.50;;;15.80;99.90;;;;;;5017425;28;20764;-79
2022/09/03 02:06:50;;;;;;;6.25;0.98;;;15.70;99.90;;;;;;4978209;28;20140;-79
2022/09/03 02:09:17;;;;;;;2.58;0.73;;;15.80;99.90;;;;;;5018224;28;20046;-81
2022/09/03 02:11:45;;;;;;;2.30;0.50;;;15.70;99.90;;;;;;4984435;28;20530;-80
2022/09/03 02:14:12;;;;;;;1.38;0.98;;;15.70;99.90;;;;;;4986726;28;20050;-81
2022/09/03 02:16:38;;;;;;;2.40;0.50;;;15.60;99.90;;;;;;4983595;28;20497;-78
2022/09/03 02:19:10;;;;;;;5.20;0.43;;;15.60;99.90;;;;;;4987737;28;20128;-80
2022/09/03 02:21:41;;;;;;;3.63;0.70;;;15.60;99.90;;;;;;4982685;28;20117;-81
2022/09/03 02:24:08;;;;;;;2.20;0.70;;;15.50;99.90;;;;;;4983275;28;20034;-79
2022/09/03 02:26:34;;;;;;;0.77;0.40;;;15.50;99.90;;;;;;4983460;28;20050;-82
2022/09/03 02:29:01;;;;;;;0.85;0.30;;;15.40;99.90;;;;;;4986496;28;20092;-80
2022/09/03 02:31:27;;;;;;;2.80;0.50;;;15.40;99.90;;;;;;5011693;28;20079;-80
2022/09/03 02:33:55;;;;;;;1.30;0.88;;;15.30;99.90;;;;;;4983674;28;20042;-80
2022/09/03 02:36:28;;;;;;;2.88;0.40;;;15.30;99.90;;;;;;4964386;28;20050;-79
2022/09/03 02:38:54;;;;;;;1.23;0.73;;;15.30;99.90;;;;;;4986085;28;20050;-81
2022/09/03 02:41:19;;;;;;;0.85;0.50;;;15.30;99.90;;;;;;4983846;28;20046;-79
2022/09/03 02:43:57;;;;;;;1.23;0.55;;;15.10;99.90;;;;;;4985228;28;20046;-79
2022/09/03 02:46:28;;;;;;;4.70;0.90;;;15.10;99.90;;;;;;4983688;28;20050;-80
2022/09/03 02:48:54;;;;;;;1.73;0.70;;;15.10;99.90;;;;;;4981791;28;20045;-79
2022/09/03 02:51:20;;;;;;;1.95;0.70;;;15.10;99.90;;;;;;4982304;28;20515;-81
2022/09/03 02:53:46;;;;;;;3.20;0.50;;;15.00;99.90;;;;;;4980781;28;20154;-80
2022/09/03 02:56:12;;;;;;;1.40;0.45;;;15.00;99.90;;;;;;5015125;28;20482;-81
2022/09/03 02:58:38;;;;;;;2.95;0.60;;;14.90;99.90;;;;;;4982857;28;20042;-80
2022/09/03 03:01:04;;;;;;;9.95;1.17;;;15.00;99.90;;;;;;4982794;28;20495;-80
2022/09/03 03:03:30;;;;;;;2.72;0.75;;;15.00;99.90;;;;;;4980095;28;20457;-80
2022/09/03 03:06:00;;;;;;;2.85;0.52;;;14.90;99.90;;;;;;4982729;28;20096;-78
2022/09/03 03:08:27;;;;;;;6.32;1.17;;;15.00;99.90;;;;;;5013085;28;20182;-80
2022/09/03 03:10:57;;;;;;;2.17;0.60;;;14.90;99.90;;;;;;4985381;28;20882;-80
2022/09/03 03:13:27;;;;;;;1.48;0.50;;;14.90;99.90;;;;;;4983622;28;20646;-79
2022/09/03 03:16:01;;;;;;;1.58;0.50;;;14.90;99.90;;;;;;4985081;28;20397;-79
2022/09/03 03:18:27;;;;;;;2.70;0.55;;;14.90;99.90;;;;;;4980433;28;20053;-81
2022/09/03 03:20:53;;;;;;;2.33;0.32;;;14.90;99.90;;;;;;4980628;28;20405;-81
2022/09/03 03:23:20;;;;;;;1.30;0.52;;;14.80;99.90;;;;;;5014586;28;20050;-79
2022/09/03 03:25:46;;;;;;;3.83;0.50;;;14.90;99.90;;;;;;4983481;28;20117;-78
2022/09/03 03:28:12;;;;;;;1.90;0.77;;;14.80;99.90;;;;;;4984350;28;20118;-79
2022/09/03 03:30:39;;;;;;;3.08;0.52;;;14.80;99.90;;;;;;4975507;28;20054;-81
2022/09/03 03:33:10;;;;;;;2.17;0.47;;;14.80;99.90;;;;;;4975613;28;20417;-75
2022/09/03 03:35:36;;;;;;;0.85;0.47;;;14.80;99.90;;;;;;4980979;28;20050;-80
2022/09/03 03:38:03;;;;;;;1.65;0.73;;;14.90;99.90;;;;;;4982080;28;20593;-82
2022/09/03 03:40:29;;;;;;;2.60;0.90;;;14.80;99.90;;;;;;4983406;28;20589;-80
2022/09/03 03:42:57;;;;;;;1.27;0.70;;;14.80;99.90;;;;;;5017000;28;20054;-81
2022/09/03 03:45:22;;;;;;;2.80;0.73;;;14.80;99.90;;;;;;4981829;28;20093;-80
2022/09/03 03:47:48;;;;;;;13.82;1.95;;;14.80;99.90;;;;;;4982797;28;20050;-78
2022/09/03 03:50:15;;;;;;;1.73;0.40;;;14.90;99.90;;;;;;4984635;28;20565;-81
2022/09/03 03:52:41;;;;;;;2.78;0.90;;;14.90;99.90;;;;;;4993546;28;20121;-80
2022/09/03 03:55:07;;;;;;;1.33;0.40;;;14.90;99.90;;;;;;4985329;28;20082;-81
2022/09/03 03:57:33;;;;;;;2.42;0.73;;;14.90;99.90;;;;;;4979180;28;20054;-81
2022/09/03 03:59:58;;;;;;;6.55;1.35;;;14.70;99.90;;;;;;4985697;28;20046;-79
2022/09/03 04:02:24;;;;;;;1.27;0.52;;;14.90;99.90;;;;;;5013191;28;20120;-78
2022/09/03 04:04:50;;;;;;;1.00;0.35;;;14.80;99.90;;;;;;4982913;28;20425;-80
2022/09/03 04:07:15;;;;;;;2.75;0.50;;;14.90;99.90;;;;;;4983014;28;20046;-79
2022/09/03 04:09:41;;;;;;;4.22;0.60;;;14.90;99.90;;;;;;4982719;28;20169;-81
2022/09/03 04:12:07;;;;;;;3.17;1.20;;;14.90;99.90;;;;;;4966119;28;20464;-81
2022/09/03 04:14:34;;;;;;;1.33;0.93;;;14.90;99.90;;;;;;4984244;28;20126;-80
2022/09/03 04:17:01;;;;;;;1.20;0.50;;;14.90;99.90;;;;;;4984010;28;20051;-80
2022/09/03 04:19:28;;;;;;;1.90;0.50;;;14.90;99.90;;;;;;4981819;28;20042;-80
2022/09/03 04:21:54;;;;;;;0.73;0.50;;;14.90;99.90;;;;;;4981943;28;20188;-80
2022/09/03 04:24:19;;;;;;;3.60;0.52;;;14.90;99.90;;;;;;4983582;28;20073;-79
2022/09/03 04:26:46;;;;;;;3.75;2.10;;;14.90;99.90;;;;;;4983260;28;20477;-79
2022/09/03 04:29:12;;;;;;;4.07;0.50;;;14.90;99.90;;;;;;4981994;28;20050;-79
2022/09/03 04:31:38;;;;;;;4.32;0.50;;;14.90;99.90;;;;;;4983122;28;20041;-78
2022/09/03 04:34:05;;;;;;;0.40;0.30;;;14.90;99.90;;;;;;4984235;28;20045;-80
2022/09/03 04:36:31;;;;;;;4.53;0.43;;;14.90;99.90;;;;;;4980536;28;20050;-77
2022/09/03 04:39:00;;;;;;;2.88;0.65;;;14.90;99.90;;;;;;5013572;28;20569;-79
2022/09/03 04:41:28;;;;;;;2.53;0.90;;;14.90;99.90;;;;;;4983475;28;20045;-81
2022/09/03 04:43:55;;;;;;;3.63;0.70;;;14.80;99.90;;;;;;4984573;28;20053;-79
2022/09/03 04:46:24;;;;;;;3.20;0.50;;;14.80;99.90;;;;;;4980569;28;20073;-79
2022/09/03 04:48:52;;;;;;;4.65;0.55;;;14.70;99.90;;;;;;4977635;28;20108;-79
2022/09/03 04:51:26;;;;;;;3.90;0.60;;;14.80;99.90;;;;;;4982681;28;20052;-79
2022/09/03 04:54:00;;;;;;;1.00;0.70;;;14.70;99.90;;;;;;4985558;28;20831;-80
2022/09/03 04:56:28;;;;;;;4.95;0.95;;;14.70;99.90;;;;;;4984916;28;20093;-80
2022/09/03 04:59:05;;;;;;;1.45;0.40;;;14.70;99.90;;;;;;4986709;28;20054;-81
2022/09/03 05:01:33;;;;;;;1.27;0.88;;;14.70;99.90;;;;;;4983791;28;20544;-82
2022/09/03 05:04:00;;;;;;;14.95;1.17;;;14.70;99.90;;;;;;4985657;28;20035;-80
2022/09/03 05:06:27;;;;;;;2.38;0.85;;;14.70;99.90;;;;;;4985452;28;20452;-78
2022/09/03 05:08:54;;;;;;;5.55;0.90;;;14.60;99.90;;;;;;4986371;28;20039;-79
2022/09/03 05:11:20;;;;;;;0.80;0.52;;;14.60;99.90;;;;;;4984677;28;20461;-79
2022/09/03 05:13:48;;;;;;;0.80;0.63;;;14.70;99.90;;;;;;4985345;28;20092;-80
2022/09/03 05:16:14;;;;;;;0.82;0.60;;;14.60;99.90;;;;;;4984552;28;20054;-80
2022/09/03 05:18:41;;;;;;;39.42;2.35;;;14.60;99.90;;;;;;4984181;28;20383;-80
2022/09/03 05:21:17;;;;;;;2.15;0.60;;;14.60;99.90;;;;;;4982919;28;20100;-80
2022/09/03 05:23:47;;;;;;;6.00;1.67;;;14.60;99.90;;;;;;4975284;28;20569;-79
2022/09/03 05:26:16;;;;;;;5.50;1.83;;;14.50;99.90;;;;;;4984781;28;20153;-80
2022/09/03 05:28:43;;;;;;;4.25;0.85;;;14.50;99.90;;;;;;4984320;28;20424;-81
2022/09/03 05:31:11;;;;;;;2.63;0.90;;;14.60;99.90;;;;;;4986348;28;20089;-80
2022/09/03 05:33:41;;;;;;;1.83;0.77;;;14.50;99.90;;;;;;4983011;28;20454;-80
2022/09/03 05:36:10;;;;;;;1.60;0.47;;;14.60;99.90;;;;;;4983474;28;20046;-80
2022/09/03 05:38:36;;;;;;;1.35;0.80;;;14.60;99.90;;;;;;4982831;28;20045;-79
2022/09/03 05:41:04;;;;;;;2.50;0.85;;;14.60;99.90;;;;;;4985999;28;20042;-80
2022/09/03 05:43:30;;;;;;;3.45;0.80;;;14.60;99.90;;;;;;4984734;28;20110;-78
2022/09/03 05:46:10;;;;;;;1.90;0.90;;;14.50;99.90;;;;;;4984711;28;20122;-80
2022/09/03 05:48:38;;;;;;;6.15;1.15;;;14.50;99.90;;;;;;4992260;28;20066;-80
2022/09/03 05:51:08;;;;;;;5.55;1.10;;;14.60;99.90;;;;;;4981136;28;20038;-80
2022/09/03 05:53:36;;;;;;;3.55;0.70;;;14.60;99.90;;;;;;4981607;28;20492;-79
2022/09/03 05:56:05;;;;;;;1.38;1.00;;;14.60;99.90;;;;;;4980154;28;20165;-79
2022/09/03 05:58:35;;;;;;;3.58;0.80;;;14.80;99.90;;;;;;4981316;28;20042;-80
2022/09/03 06:01:21;;;;;;;1.63;0.70;;;14.80;99.90;;;;;;4982545;28;20054;-78
2022/09/03 06:03:53;;;;;;;1.23;0.85;;;14.80;99.90;;;;;;4987508;28;20057;-78
2022/09/03 06:06:24;;;;;;;2.63;0.80;;;14.80;99.90;;;;;;4992584;28;20050;-79
2022/09/03 06:08:51;;;;;;;2.50;0.80;;;14.90;99.90;;;;;;4990498;28;20085;-85
2022/09/03 06:11:16;;;;;;;2.20;0.85;;;15.00;99.90;;;;;;4987254;28;20413;-76
2022/09/03 06:13:42;;;;;;;2.42;1.08;;;15.00;99.90;;;;;;4985650;28;20031;-80
2022/09/03 06:16:08;;;;;;;4.57;1.15;;;15.10;99.90;;;;;;4987218;28;20042;-81
2022/09/03 06:18:34;;;;;;;3.45;1.13;;;15.50;99.90;;;;;;4985018;28;20394;-83
2022/09/03 06:21:02;;;;;;;2.55;1.40;;;15.40;99.90;;;;;;4983942;28;20074;-80
2022/09/03 06:23:30;;;;;;;3.70;1.10;;;15.40;99.90;;;;;;4989616;28;20116;-80
2022/09/03 06:26:10;;;;;;;2.22;0.80;;;15.20;99.90;;;;;;4986282;28;20572;-80
2022/09/03 06:28:38;;;;;;;1.75;0.70;;;15.10;99.90;;;;;;4986997;28;20074;-81
2022/09/03 06:31:07;;;;;;;3.75;1.58;;;15.10;99.90;;;;;;4986950;28;20046;-81
2022/09/03 06:33:34;;;;;;;3.67;1.10;;;15.10;99.90;;;;;;4987995;28;20404;-81
2022/09/03 06:36:02;;;;;;;1.35;1.25;;;15.10;99.90;;;;;;4985119;28;20460;-82
2022/09/03 06:38:34;;;;;;;2.45;1.20;;;15.10;99.90;;;;;;4971617;28;20133;-80
2022/09/03 06:41:03;;;;;;;5.80;0.80;;;15.20;99.90;;;;;;4986931;28;20109;-81
2022/09/03 06:43:31;;;;;;;4.10;1.75;;;15.30;99.90;;;;;;4985685;28;20038;-82
2022/09/03 06:45:59;;;;;;;2.63;1.33;;;15.30;99.90;;;;;;4985025;28;20045;-81
2022/09/03 06:48:26;;;;;;;4.45;1.00;;;15.40;99.90;;;;;;4986653;28;20579;-80
2022/09/03 06:51:00;;;;;;;7.68;1.65;;;15.50;99.90;;;;;;4989173;28;20327;-80
2022/09/03 06:53:31;;;;;;;3.22;1.45;;;15.50;99.90;;;;;;4986912;28;20054;-81
2022/09/03 06:56:02;;;;;;;5.15;1.17;;;15.60;99.90;;;;;;4993772;28;20119;-80
2022/09/03 06:58:31;;;;;;;4.53;0.80;;;15.70;99.90;;;;;;4984363;28;20054;-80
2022/09/03 07:01:05;;;;;;;3.83;0.80;;;16.30;99.90;;;;;;4986001;28;20042;-81
2022/09/03 07:03:31;;;;;;;5.15;1.08;;;17.80;99.90;;;;;;4985942;28;20405;-82
2022/09/03 07:06:09;;;;;;;2.42;0.98;;;18.20;99.90;;;;;;5015556;28;20042;-81
2022/09/03 07:08:35;;;;;;;2.17;1.00;;;17.00;99.90;;;;;;4989173;28;20140;-73
2022/09/03 07:11:04;;;;;;;2.42;1.40;;;16.70;99.90;;;;;;4985117;28;20125;-79
2022/09/03 07:13:32;;;;;;;4.63;1.15;;;16.50;99.90;;;;;;4986215;28;20053;-78
2022/09/03 07:16:03;;;;;;;3.65;1.10;;;16.50;99.90;;;;;;4984478;28;20048;-78
2022/09/03 07:18:30;;;;;;;2.58;1.10;;;16.50;99.90;;;;;;4986937;28;20463;-78
2022/09/03 07:21:01;;;;;;;4.10;1.55;;;16.50;99.90;;;;;;4984000;28;20109;-79
2022/09/03 07:23:28;;;;;;;2.95;1.10;;;16.60;99.90;;;;;;4984380;28;20070;-78
2022/09/03 07:25:55;;;;;;;2.83;0.90;;;16.70;99.90;;;;;;4993418;28;20080;-78
2022/09/03 07:28:23;;;;;;;3.42;1.10;;;16.80;99.90;;;;;;4984493;28;20042;-77
2022/09/03 07:30:49;;;;;;;3.20;1.33;;;16.90;99.90;;;;;;4985694;28;20038;-74
2022/09/03 07:33:16;;;;;;;1.90;1.10;;;17.00;99.90;;;;;;4982846;28;20101;-74
2022/09/03 07:35:41;;;;;;;1.33;0.82;;;17.10;99.90;;;;;;4981774;28;20046;-74
2022/09/03 07:38:08;;;;;;;1.10;0.70;;;17.10;99.90;;;;;;4984922;28;20057;-73
2022/09/03 07:40:34;;;;;;;3.42;0.98;;;17.20;99.90;;;;;;4985601;28;20489;-73
2022/09/03 07:43:03;;;;;;;4.45;0.90;;;17.40;99.90;;;;;;4983562;28;20137;-74
2022/09/03 07:45:29;;;;;;;2.22;1.45;;;17.40;99.90;;;;;;4983702;28;20050;-73
2022/09/03 07:47:54;;;;;;;1.25;1.05;;;17.50;99.90;;;;;;4984480;28;20249;-72
2022/09/03 07:50:20;;;;;;;1.00;0.80;;;17.60;99.90;;;;;;4983239;28;20050;-74
2022/09/03 07:52:46;;;;;;;6.28;1.30;;;17.70;99.90;;;;;;4983702;28;20125;-73
2022/09/03 07:55:13;;;;;;;3.72;1.08;;;17.80;99.90;;;;;;4981353;28;20166;-73
2022/09/03 07:57:39;;;;;;;4.10;0.80;;;17.90;99.90;;;;;;4985083;28;20521;-73
2022/09/03 08:00:10;;;;;;;3.40;0.95;;;17.80;99.90;;;;;;4985106;28;20041;-72
2022/09/03 08:02:36;;;;;;;1.65;0.88;;;18.00;99.90;;;;;;5016867;28;20050;-74
2022/09/03 08:05:02;;;;;;;2.97;0.93;;;18.20;99.90;;;;;;4983657;28;20116;-73
2022/09/03 08:07:29;;;;;;;2.38;0.60;;;18.30;99.90;;;;;;4981633;28;20042;-73
2022/09/03 08:09:55;;;;;;;1.65;1.00;;;18.30;99.90;;;;;;4985022;28;20532;-74
2022/09/03 08:12:21;;;;;;;3.78;1.27;;;18.30;99.90;;;;;;4984827;28;20046;-73
2022/09/03 08:14:47;;;;;;;3.25;0.73;;;18.50;99.90;;;;;;4983138;28;20053;-75
2022/09/03 08:17:12;;;;;;;1.40;0.90;;;18.60;99.90;;;;;;4983139;28;20034;-72
2022/09/03 08:19:39;;;;;;;1.15;0.80;;;18.40;99.90;;;;;;4989778;28;20050;-72
2022/09/03 08:22:05;;;;;;;2.30;1.17;;;18.50;99.90;;;;;;4983859;28;20129;-73
2022/09/03 08:24:33;;;;;;;27.50;2.47;;;18.60;99.90;;;;;;4984980;28;20117;-72
2022/09/03 08:26:59;;;;;;;1.08;0.80;;;18.80;99.90;;;;;;4984899;28;20096;-73
2022/09/03 08:29:26;;;;;;;3.13;1.17;;;18.60;99.90;;;;;;4980061;28;20109;-73
2022/09/03 08:31:52;;;;;;;7.07;2.25;;;18.90;99.90;;;;;;4987250;28;20525;-73
2022/09/03 08:34:18;;;;;;;5.65;1.58;;;18.90;99.90;;;;;;4988149;28;20129;-73
2022/09/03 08:36:45;;;;;;;24.55;1.52;;;19.10;99.90;;;;;;4986919;28;20125;-72
2022/09/03 08:39:12;;;;;;;2.53;1.08;;;19.10;99.90;;;;;;4987827;28;20556;-73
2022/09/03 08:41:50;;;;;;;11.60;2.95;;;19.20;99.90;;;;;;4988313;28;20046;-74
2022/09/03 08:44:16;;;;;;;5.53;0.95;;;19.30;99.90;;;;;;4986897;28;20082;-73
2022/09/03 08:47:01;;;;;;;4.50;0.85;;;19.40;99.90;;;;;;4985951;28;20425;-73
2022/09/03 08:49:32;;;;;;;1.65;1.23;;;19.40;99.90;;;;;;4986926;28;20078;-73
2022/09/03 08:52:02;;;;;;;3.88;0.70;;;19.30;99.90;;;;;;5007016;28;20382;-74
2022/09/03 08:54:30;;;;;;;3.30;1.40;;;19.40;99.90;;;;;;4998756;28;20042;-73
2022/09/03 08:57:00;;;;;;;5.80;0.90;;;19.60;99.90;;;;;;5000559;28;20055;-72
2022/09/03 08:59:26;;;;;;;2.75;0.73;;;19.80;99.90;;;;;;5006979;28;20042;-72
2022/09/03 09:02:08;;;;;;;3.05;0.55;;;19.80;99.90;;;;;;5005270;28;20535;-73
2022/09/03 09:04:40;;;;;;;4.32;0.60;;;20.00;99.90;;;;;;4986475;28;20523;-72
2022/09/03 09:07:06;;;;;;;2.78;0.90;;;19.90;99.90;;;;;;4967794;28;20108;-73
2022/09/03 09:09:48;;;;;;;3.30;0.63;;;20.00;99.90;;;;;;4997253;28;20075;-74
2022/09/03 09:12:14;;;;;;;2.35;0.90;;;20.10;99.90;;;;;;5007037;28;20277;-73
2022/09/03 09:14:42;;;;;;;1.98;0.70;;;20.10;99.90;;;;;;5004684;28;20050;-73
2022/09/03 09:17:14;;;;;;;3.40;0.60;;;20.20;99.90;;;;;;4997593;28;20069;-73
2022/09/03 09:19:43;;;;;;;4.25;0.90;;;20.40;99.90;;;;;;4984655;28;20439;-73
2022/09/03 09:22:13;;;;;;;5.25;1.58;;;20.40;99.90;;;;;;4985585;28;20046;-73
2022/09/03 09:24:43;;;;;;;2.65;0.70;;;20.30;99.90;;;;;;4986257;28;20042;-74
2022/09/03 09:27:11;;;;;;;1.10;0.63;;;20.40;99.90;;;;;;5000325;28;20366;-73
2022/09/03 09:29:37;;;;;;;3.80;0.90;;;20.40;99.90;;;;;;5006830;28;20053;-73
2022/09/03 09:32:06;;;;;;;3.55;0.77;;;20.50;99.90;;;;;;5003475;28;20242;-73
2022/09/03 09:34:36;;;;;;;1.35;0.70;;;20.70;99.90;;;;;;4985642;28;20050;-72
2022/09/03 09:37:03;;;;;;;;;;;20.80;99.90;;;;;;4986170;28;20086;-72
2022/09/03 09:39:29;;;;;;;4.65;1.00;;;20.80;99.90;;;;;;4987347;28;19929;-74
2022/09/03 09:42:07;;;;;;;8.95;1.17;;;21.00;99.90;;;;;;4986625;28;20046;-73
2022/09/03 09:44:33;;;;;;;3.67;1.00;;;21.20;99.90;;;;;;4988006;28;20042;-73
2022/09/03 09:47:13;;;;;;;2.80;0.70;;;21.30;99.90;;;;;;4985432;28;20097;-72
2022/09/03 09:49:47;;;;;;;1.15;0.70;;;21.30;99.90;;;;;;4986639;28;20050;-73
2022/09/03 09:52:15;;;;;;;1.70;0.60;;;21.60;99.90;;;;;;4966681;28;20058;-74
2022/09/03 09:54:44;;;;;;;2.15;0.80;;;21.50;99.90;;;;;;4985086;28;20053;-73
2022/09/03 09:57:21;;;;;;;4.32;1.45;;;21.50;99.90;;;;;;4997494;28;20038;-74
2022/09/03 09:59:49;;;;;;;2.10;1.30;;;21.70;99.90;;;;;;4997618;28;20049;-74
2022/09/03 10:02:25;;;;;;;6.85;0.90;;;21.80;99.90;;;;;;5004205;28;20049;-73
2022/09/03 10:04:52;;;;;;;4.32;0.85;;;21.90;99.90;;;;;;5003194;28;20062;-73
2022/09/03 10:07:23;;;;;;;5.85;0.70;;;21.80;99.90;;;;;;4987736;28;20073;-73
2022/09/03 10:10:02;;;;;;;8.35;0.95;;;21.90;99.90;;;;;;4986655;28;20050;-73
2022/09/03 10:12:38;;;;;;;3.60;0.90;;;22.00;99.90;;;;;;4986602;28;20469;-74
2022/09/03 10:15:32;;;;;;;7.75;0.93;;;22.10;99.90;;;;;;4985981;28;20035;-73
2022/09/03 10:18:33;;;;;;;3.53;1.10;;;22.20;99.90;;;;;;4983354;28;20540;-72
2022/09/03 10:21:18;;;;;;;3.38;1.10;;;22.10;99.90;;;;;;4983869;28;20125;-72
2022/09/03 10:23:52;;;;;;;4.53;0.60;;;22.40;99.90;;;;;;4984835;28;20046;-74
2022/09/03 10:26:28;;;;;;;6.50;1.02;;;22.70;99.90;;;;;;4984991;28;20050;-73
2022/09/03 10:28:57;;;;;;;2.58;0.68;;;22.80;99.90;;;;;;4986031;28;20089;-73
2022/09/03 10:31:40;;;;;;;2.97;0.80;;;22.90;99.90;;;;;;4985966;28;20468;-73
2022/09/03 10:34:17;;;;;;;2.53;1.08;;;22.60;99.90;;;;;;4985812;28;20521;-73
2022/09/03 10:37:08;;;;;;;3.03;1.42;;;22.70;99.90;;;;;;4985693;28;20371;-73
2022/09/03 10:39:59;;;;;;;6.45;1.00;;;22.70;99.90;;;;;;4999445;28;20515;-73
2022/09/03 10:42:34;;;;;;;3.85;0.80;;;22.90;99.90;;;;;;5005500;28;20070;-73
2022/09/03 10:45:02;;;;;;;2.35;0.93;;;22.90;99.90;;;;;;5006087;28;20432;-73
2022/09/03 10:47:41;;;;;;;4.43;0.70;;;22.90;99.90;;;;;;5002939;28;20042;-75
2022/09/03 10:50:16;;;;;;;4.90;0.90;;;23.10;99.90;;;;;;5004100;28;20049;-73
2022/09/03 10:53:36;;;;;;;1.45;0.47;;;23.10;99.90;;;;;;4986983;28;20050;-73
2022/09/03 10:56:24;;;;;;;3.30;0.65;;;23.30;99.90;;;;;;4948360;28;20103;-73
2022/09/03 10:59:26;;;;;;;7.82;0.80;;;23.30;99.90;;;;;;5016887;28;20132;-74
2022/09/03 11:02:26;;;;;;;3.53;0.85;;;23.30;99.90;;;;;;4983008;28;20053;-73
2022/09/03 11:05:06;;;;;;;5.32;0.80;;;23.40;99.40;;;;;;4985151;28;20494;-73
2022/09/03 11:08:16;;;;;;;3.58;0.93;;;23.60;99.90;;;;;;4987000;28;20039;-72
2022/09/03 11:10:48;;;;;;;2.83;0.70;;;23.60;99.20;;;;;;4949079;28;20067;-73
2022/09/03 11:13:34;;;;;;;3.85;0.88;;;23.70;99.30;;;;;;4977819;28;20055;-73
2022/09/03 11:16:08;;;;;;;1.23;0.88;;;24.00;99.30;;;;;;4986367;28;20507;-73
2022/09/03 11:18:53;;;;;;;15.93;1.70;;;23.90;99.20;;;;;;5016653;28;20053;-74
2022/09/03 11:21:27;;;;;;;5.70;0.50;;;24.10;98.40;;;;;;4983167;28;20112;-73
2022/09/03 11:24:12;;;;;;;1.85;0.70;;;24.30;99.10;;;;;;4984389;28;20519;-73
2022/09/03 11:26:50;;;;;;;2.38;0.80;;;24.30;98.70;;;;;;4984255;28;20046;-72
2022/09/03 11:29:35;;;;;;;1.08;0.50;;;24.30;98.50;;;;;;4996874;28;20046;-74
2022/09/03 11:32:15;;;;;;;6.10;0.52;;;24.40;97.90;;;;;;5005031;28;20385;-74
2022/09/03 11:34:53;;;;;;;2.70;0.60;;;24.40;98.00;;;;;;5004195;28;20038;-72
2022/09/03 11:37:24;;;;;;;1.52;0.82;;;24.40;97.80;;;;;;5004649;28;20128;-73
2022/09/03 11:40:18;;;;;;;3.30;1.20;;;24.30;98.10;;;;;;5001567;28;20034;-72
2022/09/03 11:42:44;;;;;;;3.65;0.73;;;24.30;97.70;;;;;;4974224;28;20050;-72
2022/09/03 11:45:22;;;;;;;5.53;1.38;;;24.20;97.60;;;;;;4984776;28;20042;-73
2022/09/03 11:47:48;;;;;;;9.25;1.00;;;24.20;97.70;;;;;;4987268;28;20068;-73
2022/09/03 11:50:26;;;;;;;2.65;0.70;;;24.50;97.20;;;;;;5003508;28;20492;-74
2022/09/03 11:53:23;;;;;;;1.48;0.50;;;24.40;96.50;;;;;;5004555;28;20484;-73
2022/09/03 11:55:53;;;;;;;5.25;0.50;;;24.60;96.90;;;;;;4981859;28;20063;-72
2022/09/03 11:58:31;;;;;;;3.22;0.60;;;24.60;97.40;;;;;;4989953;28;20065;-72
2022/09/03 12:01:00;;;;;;;2.92;0.93;;;24.60;96.80;;;;;;4986732;28;20043;-72
2022/09/03 12:03:35;;;;;;;10.23;0.90;;;24.60;96.60;;;;;;4999930;28;20128;-72
2022/09/03 12:06:19;;;;;;;5.28;0.63;;;24.70;96.80;;;;;;5005437;28;20048;-72
2022/09/03 12:09:12;;;;;;;3.65;0.95;;;24.60;96.20;;;;;;5007415;28;20082;-73
2022/09/03 12:11:43;;;;;;;1.77;0.63;;;24.60;96.10;;;;;;5005166;28;20081;-73
2022/09/03 12:14:48;;;;;;;3.70;0.90;;;24.60;96.70;;;;;;4989650;28;20709;-72
2022/09/03 12:17:44;;;;;;;4.40;0.60;;;24.90;97.10;;;;;;5003672;28;20050;-73
2022/09/03 12:20:16;;;;;;;4.43;0.98;;;25.00;96.20;;;;;;4986497;28;20046;-73
2022/09/03 12:22:41;;;;;;;1.73;0.65;;;24.90;95.70;;;;;;4989038;28;20177;-73
2022/09/03 12:25:13;;;;;;;4.90;0.82;;;24.80;95.80;;;;;;5005649;28;20110;-74
2022/09/03 12:27:42;;;;;;;9.70;0.75;;;24.70;95.30;;;;;;5002847;28;20046;-73
2022/09/03 12:30:16;;;;;;;3.22;0.88;;;24.80;95.50;;;;;;4986405;28;20038;-73
2022/09/03 12:32:42;;;;;;;2.33;1.02;;;24.90;96.30;;;;;;4988647;28;20042;-73
2022/09/03 12:35:22;;;;;;;3.08;0.60;;;24.80;95.80;;;;;;5003647;28;20390;-73
2022/09/03 12:37:51;;;;;;;2.38;0.82;;;25.00;95.80;;;;;;4969386;28;20058;-74
2022/09/03 12:40:20;;;;;;;3.90;0.70;;;24.80;95.80;;;;;;4969238;28;20042;-74
2022/09/03 12:42:46;;;;;;;3.80;0.80;;;24.80;96.20;;;;;;4969235;28;20335;-73
2022/09/03 12:45:14;;;;;;;2.03;0.77;;;24.80;95.40;;;;;;5002166;28;20046;-72
2022/09/03 12:47:41;;;;;;;2.03;0.98;;;24.90;94.80;;;;;;4994855;28;20043;-72
2022/09/03 12:50:15;;;;;;;2.47;0.68;;;24.90;95.30;;;;;;4987157;28;20054;-74
2022/09/03 12:52:55;;;;;;;4.10;0.90;;;24.80;95.20;;;;;;4988769;28;20042;-73
2022/09/03 12:55:23;;;;;;;;;;;24.80;95.60;;;;;;5018108;28;20054;-73
2022/09/03 12:58:10;;;;;;;1.23;0.80;;;24.70;95.90;;;;;;4986416;28;20038;-73
2022/09/03 13:00:45;;;;;;;2.65;0.65;;;24.80;96.00;;;;;;4987083;28;20129;-74
2022/09/03 13:03:28;;;;;;;4.65;0.82;;;24.80;95.40;;;;;;5016618;28;20050;-74
2022/09/03 13:05:58;;;;;;;0.95;0.60;;;24.90;95.50;;;;;;4986347;28;20050;-77
2022/09/03 13:08:28;;;;;;;;;;;25.00;95.80;;;;;;4985805;28;20573;-84
2022/09/03 13:10:56;;;;;;;5.75;2.28;;;25.20;95.70;;;;;;4982121;28;19929;-76
2022/09/03 13:13:26;;;;;;;1.65;0.70;;;25.30;95.00;;;;;;4984501;28;20507;-75
2022/09/03 13:16:08;;;;;;;2.25;1.00;;;25.10;94.60;;;;;;4987521;28;20042;-77